Time;durP1;ratioP1;P1;durP2;ratioP2;P2;SDS_P1;SDS_P2;PMS_P1;PMS_P2;Temp;Humidity;BMP_temperature;BMP_pressure;BME280_temperature;BME280_humidity;BME280_pressure;Samples;Min_cycle;Max_cycle;Signal;HPM_P1;HPM_P2
2023/06/24 00:01:26;;;;;;;5.88;2.78;;;17.80;93.50;;;;;;4856998;29;39769;-86
2023/06/24 00:03:53;;;;;;;3.38;2.50;;;17.70;88.40;;;;;;4871087;29;37161;-86
2023/06/24 00:06:20;;;;;;;3.30;3.00;;;17.70;90.40;;;;;;4855687;29;39227;-86
2023/06/24 00:08:47;;;;;;;3.95;2.92;;;17.60;91.50;;;;;;4869796;29;36960;-86
2023/06/24 00:11:14;;;;;;;5.93;2.58;;;17.60;90.50;;;;;;4856750;29;39254;-86
2023/06/24 00:13:41;;;;;;;3.90;2.80;;;17.60;96.10;;;;;;4867165;29;39426;-86
2023/06/24 00:16:07;;;;;;;3.00;2.70;;;17.50;96.50;;;;;;4860148;29;39776;-87
2023/06/24 00:18:34;;;;;;;5.05;3.28;;;17.50;96.70;;;;;;4864551;29;36341;-86
2023/06/24 00:21:01;;;;;;;4.47;2.90;;;17.50;98.40;;;;;;4856052;29;39690;-87
2023/06/24 00:23:28;;;;;;;4.15;2.97;;;17.40;99.90;;;;;;4851661;29;46998;-86
2023/06/24 00:25:56;;;;;;;3.38;3.05;;;17.40;99.90;;;;;;4873237;29;38544;-85
2023/06/24 00:28:22;;;;;;;4.30;3.00;;;17.30;99.90;;;;;;4853277;29;35845;-87
2023/06/24 00:30:49;;;;;;;4.97;3.42;;;17.30;99.90;;;;;;4857831;29;40652;-86
2023/06/24 00:33:20;;;;;;;3.67;2.92;;;17.20;99.90;;;;;;4870558;29;39476;-86
2023/06/24 00:35:46;;;;;;;4.25;3.20;;;17.20;99.90;;;;;;4864540;29;38026;-85
2023/06/24 00:38:12;;;;;;;4.60;3.08;;;17.20;99.90;;;;;;4858300;29;36170;-86
2023/06/24 00:40:39;;;;;;;4.60;3.35;;;17.10;99.90;;;;;;4858177;29;40611;-86
2023/06/24 00:43:06;;;;;;;3.33;3.03;;;17.10;99.90;;;;;;4853363;29;37634;-87
2023/06/24 00:45:32;;;;;;;4.57;3.30;;;17.10;99.90;;;;;;4858197;29;37055;-86
2023/06/24 00:47:59;;;;;;;7.18;3.28;;;17.10;99.90;;;;;;4873932;29;38282;-86
2023/06/24 00:50:25;;;;;;;5.72;3.63;;;17.00;99.90;;;;;;4857590;29;37803;-86
2023/06/24 00:52:51;;;;;;;3.63;3.20;;;16.90;99.90;;;;;;4849065;29;40659;-86
2023/06/24 00:55:20;;;;;;;3.83;3.42;;;16.90;99.90;;;;;;4871877;29;37011;-86
2023/06/24 00:57:51;;;;;;;5.32;3.30;;;16.90;99.90;;;;;;4855148;29;37443;-86
2023/06/24 01:02:59;;;;;;;5.57;3.17;;;16.80;99.90;;;;;;5217538;23;20065;-88
2023/06/24 01:05:28;;;;;;;4.32;3.40;;;16.80;99.90;;;;;;4868710;29;37448;-89
2023/06/24 01:07:55;;;;;;;5.10;3.20;;;16.70;99.90;;;;;;4875205;29;35935;-88
2023/06/24 01:10:23;;;;;;;5.18;3.60;;;16.70;99.90;;;;;;4875865;29;38604;-88
2023/06/24 01:12:49;;;;;;;3.90;2.90;;;16.70;99.90;;;;;;4886574;29;37885;-87
2023/06/24 01:15:17;;;;;;;6.78;4.07;;;16.70;99.90;;;;;;4867672;29;37038;-88
2023/06/24 01:18:02;;;;;;;4.07;3.13;;;16.70;99.90;;;;;;4869404;29;38946;-88
2023/06/24 01:20:49;;;;;;;6.43;3.70;;;16.60;99.90;;;;;;4869545;29;47518;-88
2023/06/24 01:23:15;;;;;;;4.43;3.33;;;16.60;99.90;;;;;;4889305;29;39388;-88
2023/06/24 01:26:15;;;;;;;4.40;3.30;;;16.60;99.90;;;;;;4873806;29;36744;-88
2023/06/24 01:28:44;;;;;;;5.78;3.55;;;16.50;99.90;;;;;;4873159;29;47084;-88
2023/06/24 01:31:30;;;;;;;4.25;3.20;;;16.50;99.90;;;;;;4877828;29;39554;-88
2023/06/24 01:34:15;;;;;;;4.72;3.53;;;16.50;99.90;;;;;;4869400;29;38738;-87
2023/06/24 01:36:47;;;;;;;4.85;3.55;;;16.40;99.90;;;;;;4865680;29;45833;-88
2023/06/24 01:39:18;;;;;;;3.85;3.53;;;16.40;99.90;;;;;;4867509;29;37444;-88
2023/06/24 01:41:51;;;;;;;4.85;3.67;;;16.40;99.90;;;;;;4861985;29;39637;-88
2023/06/24 01:44:18;;;;;;;3.88;3.58;;;16.40;99.90;;;;;;4865628;29;38779;-88
2023/06/24 01:46:48;;;;;;;6.65;3.90;;;16.40;99.90;;;;;;4866919;29;39185;-87
2023/06/24 01:49:17;;;;;;;5.93;4.10;;;16.40;99.90;;;;;;4866884;29;39040;-87
2023/06/24 01:51:46;;;;;;;3.95;3.55;;;16.40;99.90;;;;;;4864409;29;39176;-87
2023/06/24 01:54:18;;;;;;;4.30;3.70;;;16.40;99.90;;;;;;4883421;29;38333;-88
2023/06/24 01:56:47;;;;;;;4.30;3.67;;;16.40;99.90;;;;;;4864338;29;39487;-88
2023/06/24 01:59:16;;;;;;;4.05;3.67;;;16.50;99.90;;;;;;4862190;29;38985;-88
2023/06/24 02:01:44;;;;;;;4.97;3.78;;;16.50;99.90;;;;;;4880749;29;39869;-86
2023/06/24 02:04:12;;;;;;;5.20;4.22;;;16.50;99.90;;;;;;4863751;29;39573;-88
2023/06/24 02:06:40;;;;;;;6.47;4.30;;;16.50;99.90;;;;;;4861497;29;38630;-86
2023/06/24 02:09:08;;;;;;;5.70;4.35;;;16.60;99.90;;;;;;4860429;29;37463;-87
2023/06/24 02:11:37;;;;;;;9.38;4.90;;;16.60;99.90;;;;;;4866588;29;40511;-88
2023/06/24 02:14:05;;;;;;;5.55;4.57;;;16.60;99.90;;;;;;4863932;29;39631;-88
2023/06/24 02:16:33;;;;;;;5.97;4.82;;;16.60;99.90;;;;;;4866321;29;40062;-87
2023/06/24 02:19:03;;;;;;;9.38;5.40;;;16.60;99.90;;;;;;4875180;29;37766;-88
2023/06/24 02:21:30;;;;;;;5.40;4.72;;;16.60;99.90;;;;;;4865976;29;47489;-86
2023/06/24 02:23:57;;;;;;;6.10;4.47;;;16.60;99.90;;;;;;4865647;29;38792;-88
2023/06/24 02:26:25;;;;;;;5.38;4.88;;;16.60;99.90;;;;;;4884095;29;38065;-88
2023/06/24 02:28:53;;;;;;;7.68;5.65;;;16.60;99.90;;;;;;4866142;29;37146;-88
2023/06/24 02:31:19;;;;;;;7.93;5.38;;;16.60;99.90;;;;;;4864365;29;39443;-86
2023/06/24 02:33:46;;;;;;;6.68;5.07;;;16.60;99.90;;;;;;4864745;29;40096;-87
2023/06/24 02:36:12;;;;;;;6.53;5.55;;;16.60;99.90;;;;;;4881748;29;36385;-88
2023/06/24 02:38:38;;;;;;;7.70;5.93;;;16.60;99.90;;;;;;4862902;29;37862;-89
2023/06/24 02:41:04;;;;;;;6.63;5.35;;;16.60;99.90;;;;;;4865911;29;37830;-87
2023/06/24 02:43:32;;;;;;;6.32;4.97;;;16.50;99.90;;;;;;4865652;29;38915;-87
2023/06/24 02:46:01;;;;;;;7.43;4.95;;;16.50;99.90;;;;;;4868092;29;36827;-86
2023/06/24 02:48:30;;;;;;;7.63;5.28;;;16.40;99.90;;;;;;4862598;29;47440;-85
2023/06/24 02:50:59;;;;;;;5.80;5.25;;;16.40;99.90;;;;;;4869895;29;40481;-87
2023/06/24 02:53:25;;;;;;;5.75;4.75;;;16.40;99.90;;;;;;4863274;29;38552;-85
2023/06/24 02:55:54;;;;;;;7.25;5.32;;;16.40;99.90;;;;;;4865618;29;39458;-86
2023/06/24 02:58:21;;;;;;;7.80;5.47;;;16.40;99.90;;;;;;4882294;29;35745;-86
2023/06/24 03:00:49;;;;;;;7.93;5.70;;;16.40;99.90;;;;;;4864290;29;37726;-86
2023/06/24 03:03:17;;;;;;;7.35;5.80;;;16.30;99.90;;;;;;4862216;29;39014;-86
2023/06/24 03:05:44;;;;;;;6.32;5.32;;;16.30;99.90;;;;;;4865537;29;39255;-84
2023/06/24 03:08:10;;;;;;;6.03;5.43;;;16.40;99.90;;;;;;4862639;29;38561;-87
2023/06/24 03:10:37;;;;;;;7.30;5.78;;;16.40;99.90;;;;;;4865316;29;38133;-89
2023/06/24 03:13:03;;;;;;;7.93;6.43;;;16.40;99.90;;;;;;4862551;29;39926;-87
2023/06/24 03:15:31;;;;;;;7.70;6.40;;;16.40;99.90;;;;;;4867167;29;38859;-86
2023/06/24 03:17:57;;;;;;;7.40;6.13;;;16.40;99.90;;;;;;4870415;29;38106;-86
2023/06/24 03:20:23;;;;;;;8.18;6.25;;;16.40;99.90;;;;;;4886600;29;38512;-87
2023/06/24 03:22:52;;;;;;;7.95;6.07;;;16.40;99.90;;;;;;4884954;29;38196;-86
2023/06/24 03:25:18;;;;;;;8.27;7.35;;;16.40;99.90;;;;;;4860951;29;37128;-84
2023/06/24 03:27:44;;;;;;;12.77;6.90;;;16.40;99.90;;;;;;4866778;29;36258;-87
2023/06/24 03:30:14;;;;;;;8.95;6.95;;;16.40;99.90;;;;;;4880436;29;39416;-88
2023/06/24 03:32:41;;;;;;;7.95;7.07;;;16.40;99.90;;;;;;4866445;29;38591;-86
2023/06/24 03:35:07;;;;;;;9.77;7.00;;;16.40;99.90;;;;;;4870479;29;36889;-87
2023/06/24 03:37:33;;;;;;;8.32;6.32;;;16.40;99.90;;;;;;4873953;29;37975;-86
2023/06/24 03:40:00;;;;;;;8.48;6.65;;;16.50;99.90;;;;;;4865904;29;39602;-86
2023/06/24 03:42:26;;;;;;;8.50;6.72;;;16.50;99.90;;;;;;4880325;29;38744;-88
2023/06/24 03:45:12;;;;;;;9.95;7.03;;;16.50;99.90;;;;;;5127812;27;20339;-87
2023/06/24 03:47:38;;;;;;;8.48;6.22;;;16.50;99.90;;;;;;5088816;27;38676;-87
2023/06/24 03:50:05;;;;;;;7.72;6.90;;;16.50;99.90;;;;;;5087538;27;38409;-87
2023/06/24 03:52:31;;;;;;;11.30;7.10;;;16.50;99.90;;;;;;5090480;27;39302;-86
2023/06/24 03:54:57;;;;;;;7.90;6.15;;;16.40;99.90;;;;;;5094781;27;39666;-87
2023/06/24 03:57:23;;;;;;;12.13;7.03;;;16.40;99.90;;;;;;5093606;27;37051;-86
2023/06/24 03:59:50;;;;;;;8.40;5.95;;;16.50;99.90;;;;;;5095371;27;38585;-86
2023/06/24 04:02:17;;;;;;;8.98;6.40;;;16.50;99.90;;;;;;5099740;27;40584;-87
2023/06/24 04:04:43;;;;;;;8.90;6.63;;;16.50;99.90;;;;;;5104367;27;37060;-87
2023/06/24 04:07:09;;;;;;;10.02;6.43;;;16.50;99.90;;;;;;5125601;27;37420;-87
2023/06/24 04:09:36;;;;;;;8.55;6.55;;;16.60;99.90;;;;;;5103358;27;35871;-86
2023/06/24 04:12:02;;;;;;;8.07;6.50;;;16.60;99.90;;;;;;5095167;27;39329;-87
2023/06/24 04:14:28;;;;;;;7.20;6.50;;;16.60;99.90;;;;;;5102547;27;37116;-87
2023/06/24 04:16:54;;;;;;;12.35;7.05;;;16.60;99.90;;;;;;5122055;27;37308;-87
2023/06/24 04:19:21;;;;;;;10.52;6.97;;;16.70;99.90;;;;;;5100985;27;37375;-87
2023/06/24 04:21:47;;;;;;;10.32;7.10;;;16.70;99.90;;;;;;5110159;27;40420;-88
2023/06/24 04:24:13;;;;;;;8.50;6.72;;;16.60;99.90;;;;;;5105858;27;38579;-88
2023/06/24 04:26:39;;;;;;;9.20;6.93;;;16.60;99.90;;;;;;5095550;27;39190;-88
2023/06/24 04:29:05;;;;;;;12.15;7.25;;;16.60;99.90;;;;;;5090781;27;37363;-85
2023/06/24 04:31:32;;;;;;;9.18;7.18;;;16.60;99.90;;;;;;5120333;27;39476;-87
2023/06/24 04:33:58;;;;;;;9.48;7.53;;;16.70;99.90;;;;;;5094011;27;39145;-88
2023/06/24 04:36:24;;;;;;;7.97;7.13;;;16.70;99.90;;;;;;5120594;27;38358;-87
2023/06/24 04:38:50;;;;;;;11.35;7.15;;;16.80;99.90;;;;;;5123084;27;37987;-87
2023/06/24 04:41:18;;;;;;;11.80;6.90;;;16.80;99.90;;;;;;5102392;27;37302;-88
2023/06/24 04:43:44;;;;;;;11.18;7.05;;;16.90;99.90;;;;;;5119991;27;38993;-87
2023/06/24 04:46:10;;;;;;;11.30;6.95;;;16.90;99.90;;;;;;5120567;27;36365;-85
2023/06/24 04:48:36;;;;;;;10.35;6.80;;;16.90;99.90;;;;;;5086237;27;36165;-87
2023/06/24 04:51:02;;;;;;;8.60;7.38;;;17.00;99.90;;;;;;5092459;27;39831;-88
2023/06/24 04:53:29;;;;;;;8.85;7.50;;;17.10;99.90;;;;;;5123266;27;38263;-87
2023/06/24 04:55:55;;;;;;;13.55;6.85;;;17.10;99.90;;;;;;5080071;27;39441;-88
2023/06/24 04:58:21;;;;;;;9.50;7.95;;;17.20;99.90;;;;;;5076530;27;37404;-86
2023/06/24 05:00:48;;;;;;;10.50;7.93;;;17.30;99.90;;;;;;5103911;27;40848;-86
2023/06/24 05:03:14;;;;;;;12.75;7.03;;;17.40;99.90;;;;;;5085289;27;39064;-85
2023/06/24 05:05:40;;;;;;;10.85;7.63;;;17.50;99.90;;;;;;5099363;27;37477;-86
2023/06/24 05:08:06;;;;;;;9.57;7.05;;;17.50;99.90;;;;;;5088029;27;38172;-86
2023/06/24 05:10:32;;;;;;;8.32;7.45;;;17.70;99.90;;;;;;5109087;27;39431;-87
2023/06/24 05:12:58;;;;;;;10.73;7.43;;;17.70;99.90;;;;;;5108698;27;38639;-87
2023/06/24 05:15:25;;;;;;;9.77;7.95;;;17.80;99.90;;;;;;5065503;27;36384;-87
2023/06/24 05:17:51;;;;;;;9.45;7.72;;;17.90;99.90;;;;;;5071366;27;37333;-86
2023/06/24 05:20:17;;;;;;;12.93;8.10;;;18.00;99.90;;;;;;5078632;27;39665;-88
2023/06/24 05:22:43;;;;;;;8.35;7.38;;;18.10;99.90;;;;;;5086141;28;38745;-86
2023/06/24 05:25:10;;;;;;;9.75;7.53;;;18.30;99.90;;;;;;5090357;27;38571;-87
2023/06/24 05:27:38;;;;;;;10.05;8.10;;;18.30;99.90;;;;;;5113807;27;38577;-91
2023/06/24 05:30:05;;;;;;;10.73;8.43;;;18.30;99.90;;;;;;5107542;27;38589;-90
2023/06/24 05:32:31;;;;;;;10.32;8.70;;;18.50;99.90;;;;;;5096620;27;37545;-90
2023/06/24 05:34:57;;;;;;;10.43;8.38;;;18.70;99.90;;;;;;5117715;27;37793;-91
2023/06/24 05:37:23;;;;;;;11.82;7.88;;;18.50;99.90;;;;;;5090001;27;37583;-89
2023/06/24 05:40:01;;;;;;;13.40;8.52;;;18.80;99.90;;;;;;5087140;28;37622;-90
2023/06/24 05:42:28;;;;;;;11.35;8.75;;;18.90;99.90;;;;;;5087759;28;38648;-91
2023/06/24 05:44:58;;;;;;;9.45;8.45;;;18.90;99.90;;;;;;5087042;28;36757;-91
2023/06/24 05:47:24;;;;;;;13.20;8.48;;;19.10;99.90;;;;;;5088687;27;36769;-91
2023/06/24 05:49:50;;;;;;;8.85;7.95;;;18.80;99.90;;;;;;5091448;28;37426;-91
2023/06/24 05:52:17;;;;;;;9.70;8.05;;;18.90;99.90;;;;;;5080429;28;37645;-88
2023/06/24 05:54:43;;;;;;;11.68;8.73;;;19.20;99.90;;;;;;5086128;28;37190;-88
2023/06/24 05:57:10;;;;;;;9.25;8.10;;;19.40;99.90;;;;;;5115464;27;36355;-89
2023/06/24 05:59:36;;;;;;;10.40;8.20;;;19.40;99.90;;;;;;5081445;28;37873;-90
2023/06/24 06:02:02;;;;;;;9.10;8.10;;;19.50;99.90;;;;;;5087413;27;37346;-88
2023/06/24 06:04:29;;;;;;;15.18;9.25;;;19.80;99.90;;;;;;5124555;27;36675;-88
2023/06/24 06:06:55;;;;;;;9.82;7.72;;;19.90;99.90;;;;;;5105500;27;36949;-89
2023/06/24 06:09:22;;;;;;;11.15;8.18;;;20.00;99.90;;;;;;5108874;27;39085;-89
2023/06/24 06:11:48;;;;;;;10.80;7.95;;;20.10;99.90;;;;;;5092810;28;39910;-88
2023/06/24 06:14:14;;;;;;;11.52;8.98;;;20.40;99.90;;;;;;5111515;27;38139;-91
2023/06/24 06:16:41;;;;;;;10.80;8.90;;;20.70;99.90;;;;;;5096340;28;37819;-92
2023/06/24 06:19:07;;;;;;;11.02;9.20;;;20.70;96.60;;;;;;5119927;27;39062;-90
2023/06/24 06:21:33;;;;;;;10.82;8.25;;;20.70;94.80;;;;;;5086391;28;38933;-90
2023/06/24 06:24:00;;;;;;;12.80;8.55;;;20.90;98.10;;;;;;5082242;28;38138;-89
2023/06/24 06:26:26;;;;;;;12.15;9.00;;;21.10;97.60;;;;;;5121447;27;37338;-89
2023/06/24 06:28:53;;;;;;;11.02;9.10;;;21.20;95.60;;;;;;5092707;27;39813;-88
2023/06/24 06:31:21;;;;;;;12.50;8.48;;;21.40;87.70;;;;;;5087098;28;38727;-89
2023/06/24 06:33:47;;;;;;;10.40;8.25;;;21.30;95.10;;;;;;5089568;27;38406;-87
2023/06/24 06:36:14;;;;;;;11.00;9.45;;;21.50;80.20;;;;;;5074974;28;37988;-87
2023/06/24 06:38:44;;;;;;;12.52;9.15;;;21.10;91.40;;;;;;5091263;28;39276;-87
2023/06/24 06:41:10;;;;;;;9.25;8.05;;;21.20;95.60;;;;;;5082307;27;37444;-88
2023/06/24 06:43:37;;;;;;;12.80;9.15;;;21.40;99.90;;;;;;5115189;27;37821;-89
2023/06/24 06:46:05;;;;;;;12.73;9.07;;;21.30;91.30;;;;;;5097248;27;37796;-89
2023/06/24 06:48:31;;;;;;;11.65;9.98;;;21.40;99.70;;;;;;5125763;27;37753;-90
2023/06/24 06:50:57;;;;;;;9.88;8.63;;;21.30;94.80;;;;;;5117587;27;39088;-90
2023/06/24 06:53:23;;;;;;;12.43;8.50;;;21.60;98.50;;;;;;5104167;27;37617;-91
2023/06/24 06:55:49;;;;;;;9.85;8.05;;;22.00;91.40;;;;;;5095276;28;37896;-89
2023/06/24 06:58:15;;;;;;;10.55;9.45;;;22.20;79.50;;;;;;5118308;27;38863;-88
2023/06/24 07:01:06;;;;;;;11.00;8.75;;;22.40;67.10;;;;;;5094673;27;37794;-88
2023/06/24 07:03:32;;;;;;;9.77;8.02;;;22.30;87.70;;;;;;5097253;27;48980;-87
2023/06/24 07:05:59;;;;;;;9.50;8.43;;;22.50;56.10;;;;;;5088848;27;38569;-89
2023/06/24 07:08:25;;;;;;;9.65;8.65;;;22.20;79.90;;;;;;5105410;27;39865;-89
2023/06/24 07:10:52;;;;;;;9.95;8.50;;;22.30;77.30;;;;;;5090148;28;38601;-88
2023/06/24 07:13:19;;;;;;;13.25;8.90;;;22.50;71.70;;;;;;5114093;27;37561;-88
2023/06/24 07:15:45;;;;;;;13.20;9.27;;;22.30;73.80;;;;;;5085495;28;38102;-90
2023/06/24 07:18:11;;;;;;;11.80;9.00;;;22.50;67.70;;;;;;5086369;28;37679;-91
2023/06/24 07:20:37;;;;;;;11.45;9.25;;;22.50;60.40;;;;;;5100574;27;37102;-91
2023/06/24 07:23:04;;;;;;;11.70;8.20;;;22.10;72.50;;;;;;5093188;27;39188;-92
2023/06/24 07:25:30;;;;;;;11.93;9.13;;;22.30;84.40;;;;;;5096355;27;36210;-89
2023/06/24 07:27:57;;;;;;;13.57;8.80;;;22.40;65.30;;;;;;5089479;27;39745;-90
2023/06/24 07:30:25;;;;;;;12.07;8.98;;;22.60;75.30;;;;;;5081857;28;38537;-91
2023/06/24 07:32:51;;;;;;;9.40;8.32;;;22.70;79.70;;;;;;5108940;27;37625;-91
2023/06/24 07:35:18;;;;;;;16.40;9.60;;;23.00;84.00;;;;;;5095236;27;38604;-88
2023/06/24 07:37:45;;;;;;;10.13;8.50;;;23.10;53.70;;;;;;5119597;27;40025;-89
2023/06/24 07:40:11;;;;;;;15.43;9.70;;;23.00;56.30;;;;;;5094867;27;38591;-90
2023/06/24 07:42:38;;;;;;;11.25;7.95;;;22.80;55.30;;;;;;5108790;27;38645;-89
2023/06/24 07:45:04;;;;;;;14.35;8.68;;;22.90;67.70;;;;;;5093293;27;38620;-89
2023/06/24 07:47:31;;;;;;;10.05;8.85;;;22.90;84.40;;;;;;5091028;28;38960;-89
2023/06/24 07:49:58;;;;;;;11.10;8.88;;;23.20;78.60;;;;;;5094944;27;38923;-89
2023/06/24 07:52:24;;;;;;;14.45;9.35;;;23.70;70.40;;;;;;5088348;27;38949;-88
2023/06/24 07:54:50;;;;;;;10.30;8.63;;;23.90;44.20;;;;;;5079575;27;38643;-89
2023/06/24 07:57:16;;;;;;;13.30;10.18;;;24.20;44.60;;;;;;5093537;27;39363;-89
2023/06/24 07:59:43;;;;;;;12.73;11.00;;;24.00;37.20;;;;;;5083209;28;38936;-90
2023/06/24 08:02:09;;;;;;;14.13;10.80;;;23.20;44.40;;;;;;5087830;27;38398;-91
2023/06/24 08:04:36;;;;;;;11.55;9.77;;;22.70;53.90;;;;;;5085080;28;37871;-92
2023/06/24 08:07:03;;;;;;;13.98;10.95;;;23.10;78.90;;;;;;5097227;28;38401;-90
2023/06/24 08:09:29;;;;;;;14.25;11.32;;;23.50;47.20;;;;;;5117683;27;47151;-91
2023/06/24 08:12:04;;;;;;;13.95;9.68;;;23.10;49.10;;;;;;5092624;28;38089;-92
2023/06/24 08:14:30;;;;;;;13.90;10.68;;;23.20;82.90;;;;;;5092481;27;46975;-90
2023/06/24 08:16:56;;;;;;;11.93;8.88;;;23.50;39.50;;;;;;5080344;28;40814;-91
2023/06/24 08:19:23;;;;;;;13.05;10.68;;;24.00;60.10;;;;;;5081371;28;38422;-91
2023/06/24 08:21:49;;;;;;;15.07;11.40;;;24.10;39.80;;;;;;5086271;28;37955;-91
2023/06/24 08:24:15;;;;;;;11.70;10.50;;;24.00;27.10;;;;;;5091119;27;37766;-90
2023/06/24 08:26:43;;;;;;;13.05;9.82;;;23.90;54.80;;;;;;5082953;28;39287;-93
2023/06/24 08:29:10;;;;;;;11.98;9.13;;;24.50;47.80;;;;;;5110865;27;37221;-89
2023/06/24 08:31:37;;;;;;;10.48;9.45;;;24.90;27.00;;;;;;5102262;27;37943;-93
2023/06/24 08:34:03;;;;;;;11.25;9.77;;;24.90;16.60;;;;;;5113345;27;37605;-93
2023/06/24 08:36:29;;;;;;;13.75;10.20;;;24.80;21.00;;;;;;5082536;28;39083;-94
2023/06/24 08:38:56;;;;;;;12.50;9.20;;;24.50;48.20;;;;;;5098173;27;38539;-93
2023/06/24 08:41:24;;;;;;;12.63;10.10;;;25.00;22.70;;;;;;5088355;28;36820;-93
2023/06/24 08:43:52;;;;;;;12.82;10.68;;;25.30;8.90;;;;;;5088821;27;37738;-92
2023/06/24 08:46:19;;;;;;;13.35;10.32;;;25.40;18.40;;;;;;5102953;27;39588;-92
2023/06/24 08:49:10;;;;;;;10.30;9.18;;;25.40;28.70;;;;;;5091893;28;38917;-92
2023/06/24 08:51:41;;;;;;;12.15;10.30;;;25.70;3.80;;;;;;5075272;28;47209;-92
2023/06/24 08:54:19;;;;;;;16.58;11.18;;;25.60;9.80;;;;;;5094942;27;37455;-93
2023/06/24 08:56:48;;;;;;;16.63;10.77;;;25.70;1.00;;;;;;5088221;28;40102;-93
2023/06/24 08:59:19;;;;;;;13.38;10.05;;;25.30;5.50;;;;;;5091717;27;37593;-91
2023/06/24 09:01:47;;;;;;;14.05;10.93;;;24.80;26.80;;;;;;5088645;27;36699;-92
2023/06/24 09:04:13;;;;;;;9.05;7.82;;;25.20;21.70;;;;;;5106882;27;37535;-93
2023/06/24 09:06:39;;;;;;;11.00;8.68;;;25.50;41.30;;;;;;5088276;28;37752;-91
2023/06/24 09:09:18;;;;;;;11.65;8.82;;;26.00;13.80;;;;;;5130761;27;37240;-92
2023/06/24 09:11:54;;;;;;;15.10;10.18;;;26.40;14.50;;;;;;5091658;28;37043;-92
2023/06/24 09:14:21;;;;;;;11.93;8.75;;;26.20;1.00;;;;;;5096047;28;36627;-93
2023/06/24 09:16:52;;;;;;;10.48;7.80;;;25.90;14.80;;;;;;5092285;28;37818;-92
2023/06/24 09:19:29;;;;;;;12.50;9.55;;;26.30;1.00;;;;;;5095667;27;40148;-92
2023/06/24 09:22:03;;;;;;;14.18;10.27;;;26.60;1.00;;;;;;5094814;28;38210;-92
2023/06/24 09:24:37;;;;;;;10.38;9.05;;;25.50;1.00;;;;;;5096410;28;47219;-93
2023/06/24 09:27:05;;;;;;;10.52;9.05;;;25.30;1.00;;;;;;5084747;27;39772;-92
2023/06/24 09:29:33;;;;;;;9.65;8.45;;;25.80;1.00;;;;;;5089340;28;39094;-91
2023/06/24 09:31:59;;;;;;;13.02;9.70;;;26.00;1.00;;;;;;5089640;28;36853;-92
2023/06/24 09:34:28;;;;;;;14.93;10.18;;;25.30;1.00;;;;;;5088135;28;36997;-91
2023/06/24 09:36:56;;;;;;;12.25;8.85;;;24.80;1.00;;;;;;5101872;28;39694;-91
2023/06/24 09:39:29;;;;;;;16.67;10.73;;;25.10;9.70;;;;;;5113713;27;38486;-92
2023/06/24 09:41:59;;;;;;;9.52;7.72;;;25.20;1.00;;;;;;5096891;28;36685;-92
2023/06/24 09:44:29;;;;;;;10.18;9.07;;;25.60;1.00;;;;;;5092863;27;37402;-91
2023/06/24 09:46:56;;;;;;;12.02;8.48;;;26.00;1.00;;;;;;5091547;28;37521;-92
2023/06/24 09:49:24;;;;;;;11.27;9.50;;;25.70;1.00;;;;;;5096910;27;38677;-92
2023/06/24 09:51:57;;;;;;;14.93;10.32;;;25.90;1.00;;;;;;5091790;28;38970;-91
2023/06/24 09:54:26;;;;;;;11.68;10.00;;;26.30;1.00;;;;;;5103294;27;37740;-93
2023/06/24 09:57:02;;;;;;;10.00;8.60;;;25.90;1.00;;;;;;5094325;28;41007;-92
2023/06/24 09:59:33;;;;;;;11.18;8.98;;;25.90;1.00;;;;;;5078891;28;47169;-91
2023/06/24 10:02:04;;;;;;;8.35;7.45;;;26.30;1.00;;;;;;5090264;28;38645;-93
2023/06/24 10:04:31;;;;;;;10.48;8.75;;;26.50;1.00;;;;;;5092086;27;47103;-92
2023/06/24 10:06:58;;;;;;;13.23;11.35;;;26.60;1.00;;;;;;5081136;28;38942;-92
2023/06/24 10:09:25;;;;;;;12.10;9.18;;;25.90;1.00;;;;;;5086409;28;40030;-93
2023/06/24 10:11:51;;;;;;;10.63;9.00;;;26.30;1.00;;;;;;5081648;28;38348;-92
2023/06/24 10:14:26;;;;;;;13.70;10.48;;;26.60;1.00;;;;;;5095831;27;35913;-93
2023/06/24 10:17:03;;;;;;;12.27;9.77;;;26.60;1.00;;;;;;5100631;27;38491;-93
2023/06/24 10:19:39;;;;;;;10.23;8.13;;;27.40;1.00;;;;;;5093855;28;47105;-89
2023/06/24 10:22:10;;;;;;;10.02;8.70;;;27.70;1.00;;;;;;5091187;27;36960;-90
2023/06/24 10:24:47;;;;;;;12.35;9.02;;;28.00;1.00;;;;;;5106978;27;37495;-90
2023/06/24 10:27:15;;;;;;;11.68;9.25;;;27.60;1.00;;;;;;5081699;28;38077;-92
2023/06/24 10:29:47;;;;;;;15.00;9.77;;;27.30;1.00;;;;;;5077341;28;37689;-90
2023/06/24 10:32:16;;;;;;;13.88;9.35;;;27.10;1.00;;;;;;5094467;27;36681;-93
2023/06/24 10:34:47;;;;;;;10.63;8.32;;;26.30;1.00;;;;;;5091883;28;35927;-92
2023/06/24 10:37:14;;;;;;;12.70;9.25;;;26.70;1.00;;;;;;5091719;27;37732;-91
2023/06/24 10:39:44;;;;;;;13.05;9.00;;;27.40;1.00;;;;;;5095454;28;38013;-92
2023/06/24 10:42:43;;;;;;;10.00;7.40;;;27.50;1.00;;;;;;5094145;27;37007;-91
2023/06/24 10:45:09;;;;;;;11.98;9.38;;;28.00;1.00;;;;;;5082987;27;37376;-89
2023/06/24 10:47:56;;;;;;;13.98;10.30;;;28.10;1.00;;;;;;5078827;28;39701;-88
2023/06/24 10:50:23;;;;;;;10.70;8.20;;;27.10;1.00;;;;;;5088461;27;37083;-89
2023/06/24 10:52:56;;;;;;;13.60;8.63;;;27.40;1.00;;;;;;5090815;28;36973;-89
2023/06/24 10:55:25;;;;;;;11.32;8.85;;;27.50;1.00;;;;;;5087179;28;36383;-89
2023/06/24 10:57:53;;;;;;;10.15;9.10;;;27.60;1.00;;;;;;5085445;28;40931;-88
2023/06/24 11:00:22;;;;;;;10.52;7.22;;;27.80;1.00;;;;;;5085778;28;36836;-89
2023/06/24 11:02:48;;;;;;;21.33;8.40;;;28.20;1.00;;;;;;5085636;28;47281;-89
2023/06/24 11:05:14;;;;;;;13.02;10.43;;;28.40;1.00;;;;;;5088752;27;36918;-89
2023/06/24 11:07:41;;;;;;;10.57;8.52;;;28.70;1.00;;;;;;5097596;28;37683;-89
2023/06/24 11:10:08;;;;;;;13.55;9.30;;;28.70;1.00;;;;;;5111895;27;38135;-89
2023/06/24 11:12:37;;;;;;;14.13;10.73;;;28.90;99.90;;;;;;5079441;28;38002;-89
2023/06/24 11:15:07;;;;;;;12.63;10.07;;;28.20;1.00;;;;;;5081859;28;36889;-88
2023/06/24 11:17:35;;;;;;;15.98;9.40;;;27.90;1.00;;;;;;5089109;28;47322;-90
2023/06/24 11:20:02;;;;;;;11.65;8.57;;;27.70;1.00;;;;;;5085812;28;37162;-92
2023/06/24 11:22:29;;;;;;;12.82;7.60;;;27.60;1.00;;;;;;5084485;28;37072;-91
2023/06/24 11:24:56;;;;;;;12.13;7.95;;;27.80;1.00;;;;;;5087363;28;36629;-91
2023/06/24 11:27:30;;;;;;;12.73;7.90;;;28.20;1.00;;;;;;5094128;27;39038;-90
2023/06/24 11:30:01;;;;;;;11.50;7.65;;;28.80;99.90;;;;;;5080437;28;37155;-90
2023/06/24 11:32:38;;;;;;;10.70;7.53;;;28.70;1.00;;;;;;5078008;28;36751;-90
2023/06/24 11:35:06;;;;;;;9.70;7.38;;;27.80;99.90;;;;;;5084485;28;36239;-91
2023/06/24 11:37:35;;;;;;;8.65;7.53;;;28.10;99.90;;;;;;5088458;28;47356;-91
2023/06/24 11:40:11;;;;;;;16.35;9.43;;;28.00;1.00;;;;;;5096508;28;38618;-91
2023/06/24 11:42:44;;;;;;;9.25;6.50;;;28.10;1.00;;;;;;5094009;28;47401;-89
2023/06/24 11:45:12;;;;;;;8.73;7.10;;;28.40;1.00;;;;;;5096871;27;35865;-90
2023/06/24 11:47:40;;;;;;;12.07;8.13;;;28.50;1.00;;;;;;5093811;28;39575;-91
2023/06/24 11:50:07;;;;;;;10.88;7.95;;;28.60;1.00;;;;;;5089295;28;39194;-91
2023/06/24 11:52:43;;;;;;;8.50;6.57;;;28.90;99.90;;;;;;5077399;28;39532;-89
2023/06/24 11:55:20;;;;;;;9.75;7.03;;;28.90;1.00;;;;;;5114090;27;37986;-88
2023/06/24 11:57:56;;;;;;;9.73;8.07;;;28.90;99.90;;;;;;5078762;28;40719;-90
2023/06/24 12:00:24;;;;;;;8.32;6.70;;;28.90;95.90;;;;;;5084712;28;37422;-90
2023/06/24 12:02:52;;;;;;;9.07;7.35;;;28.60;1.00;;;;;;5085697;28;36574;-90
2023/06/24 12:05:28;;;;;;;12.73;8.73;;;29.00;32.00;;;;;;5088023;27;37010;-90
2023/06/24 12:07:59;;;;;;;10.32;7.90;;;29.10;1.00;;;;;;5119171;27;39167;-91
2023/06/24 12:10:26;;;;;;;11.57;8.15;;;29.00;99.90;;;;;;5126737;27;39270;-91
2023/06/24 12:12:52;;;;;;;8.27;6.90;;;29.10;1.00;;;;;;5099570;28;36780;-90
2023/06/24 12:15:19;;;;;;;7.78;6.25;;;29.10;99.90;;;;;;5097711;27;36393;-91
2023/06/24 12:17:45;;;;;;;9.73;7.85;;;29.20;99.90;;;;;;5102918;28;37577;-91
2023/06/24 12:20:14;;;;;;;9.23;8.32;;;28.70;1.00;;;;;;5140334;27;38666;-92
2023/06/24 12:22:41;;;;;;;7.82;6.80;;;29.00;58.50;;;;;;5101951;27;39671;-91
2023/06/24 12:25:08;;;;;;;9.35;5.75;;;29.30;1.00;;;;;;5084257;28;41529;-90
2023/06/24 12:27:47;;;;;;;8.43;6.53;;;29.30;1.00;;;;;;5087458;28;38483;-90
2023/06/24 12:30:13;;;;;;;8.00;6.20;;;29.10;1.00;;;;;;5084887;27;38594;-90
2023/06/24 12:32:40;;;;;;;6.25;4.72;;;28.80;99.90;;;;;;5124244;27;38075;-91
2023/06/24 12:35:09;;;;;;;8.15;7.07;;;28.80;1.00;;;;;;5115847;27;36625;-88
2023/06/24 12:37:35;;;;;;;8.32;5.35;;;29.10;99.90;;;;;;5108440;27;39138;-91
2023/06/24 12:40:03;;;;;;;7.20;5.78;;;29.30;24.90;;;;;;5094458;27;36799;-91
2023/06/24 12:42:29;;;;;;;7.30;5.78;;;28.40;1.00;;;;;;5078469;28;38484;-91
2023/06/24 12:44:57;;;;;;;6.60;5.65;;;28.50;1.00;;;;;;5092824;28;36640;-90
2023/06/24 12:47:31;;;;;;;8.30;6.05;;;28.70;99.90;;;;;;5087990;27;40590;-90
2023/06/24 12:50:06;;;;;;;6.13;5.22;;;28.40;1.00;;;;;;5120579;27;39205;-90
2023/06/24 12:52:33;;;;;;;8.25;5.53;;;28.60;99.90;;;;;;5103192;27;47209;-88